sensor_id;sensor_type;location;lat;lon;timestamp;temperature;humidity
46482;DHT22;32193;51.446;6.792;2022-11-10T00:02:02;11.90;99.90
46482;DHT22;32193;51.446;6.792;2022-11-10T00:04:27;11.60;99.90
46482;DHT22;32193;51.446;6.792;2022-11-10T00:06:53;11.50;99.90
46482;DHT22;32193;51.446;6.792;2022-11-10T00:09:18;11.50;99.90
46482;DHT22;32193;51.446;6.792;2022-11-10T00:11:45;11.60;99.90
46482;DHT22;32193;51.446;6.792;2022-11-10T00:14:10;11.40;99.90
46482;DHT22;32193;51.446;6.792;2022-11-10T00:19:33;11.50;99.90
46482;DHT22;32193;51.446;6.792;2022-11-10T00:21:59;11.40;99.90
46482;DHT22;32193;51.446;6.792;2022-11-10T00:24:26;11.60;99.90
46482;DHT22;32193;51.446;6.792;2022-11-10T00:26:52;11.40;99.90
46482;DHT22;32193;51.446;6.792;2022-11-10T00:29:18;11.40;99.90
46482;DHT22;32193;51.446;6.792;2022-11-10T00:31:44;11.80;99.90
46482;DHT22;32193;51.446;6.792;2022-11-10T00:34:14;11.40;99.90
46482;DHT22;32193;51.446;6.792;2022-11-10T00:36:40;11.60;99.90
46482;DHT22;32193;51.446;6.792;2022-11-10T00:39:06;11.40;99.90
46482;DHT22;32193;51.446;6.792;2022-11-10T00:43:58;11.20;99.90
46482;DHT22;32193;51.446;6.792;2022-11-10T00:46:23;11.30;99.90
46482;DHT22;32193;51.446;6.792;2022-11-10T00:48:49;11.60;99.90
46482;DHT22;32193;51.446;6.792;2022-11-10T00:51:25;11.40;99.90
46482;DHT22;32193;51.446;6.792;2022-11-10T00:53:52;11.10;99.90
46482;DHT22;32193;51.446;6.792;2022-11-10T00:56:18;11.60;99.90
46482;DHT22;32193;51.446;6.792;2022-11-10T00:58:44;10.80;99.90
46482;DHT22;32193;51.446;6.792;2022-11-10T01:01:11;11.90;99.90
46482;DHT22;32193;51.446;6.792;2022-11-10T01:03:37;10.90;99.90
46482;DHT22;32193;51.446;6.792;2022-11-10T01:06:07;11.50;99.90
46482;DHT22;32193;51.446;6.792;2022-11-10T01:08:33;11.50;99.90
46482;DHT22;32193;51.446;6.792;2022-11-10T01:11:16;11.20;99.90
46482;DHT22;32193;51.446;6.792;2022-11-10T01:13:43;11.50;99.90
46482;DHT22;32193;51.446;6.792;2022-11-10T01:16:14;11.00;99.90
46482;DHT22;32193;51.446;6.792;2022-11-10T01:21:06;11.70;99.90
46482;DHT22;32193;51.446;6.792;2022-11-10T01:23:32;10.90;99.90
46482;DHT22;32193;51.446;6.792;2022-11-10T01:26:00;11.20;99.90
46482;DHT22;32193;51.446;6.792;2022-11-10T01:28:26;11.10;99.90
46482;DHT22;32193;51.446;6.792;2022-11-10T01:31:06;11.00;99.90
46482;DHT22;32193;51.446;6.792;2022-11-10T01:33:33;11.00;99.90
46482;DHT22;32193;51.446;6.792;2022-11-10T01:35:59;11.10;99.90
46482;DHT22;32193;51.446;6.792;2022-11-10T01:38:29;11.00;99.90
46482;DHT22;32193;51.446;6.792;2022-11-10T01:40:56;11.10;99.90
46482;DHT22;32193;51.446;6.792;2022-11-10T01:43:22;11.10;99.90
46482;DHT22;32193;51.446;6.792;2022-11-10T01:51:45;11.00;99.90
46482;DHT22;32193;51.446;6.792;2022-11-10T01:54:10;11.00;99.90
46482;DHT22;32193;51.446;6.792;2022-11-10T01:56:40;11.60;99.90
46482;DHT22;32193;51.446;6.792;2022-11-10T01:59:10;11.60;99.90
46482;DHT22;32193;51.446;6.792;2022-11-10T02:01:37;11.10;99.90
46482;DHT22;32193;51.446;6.792;2022-11-10T02:04:05;11.20;99.90
46482;DHT22;32193;51.446;6.792;2022-11-10T02:06:34;11.40;99.90
46482;DHT22;32193;51.446;6.792;2022-11-10T02:09:01;11.40;99.90
46482;DHT22;32193;51.446;6.792;2022-11-10T02:11:28;11.10;99.90
46482;DHT22;32193;51.446;6.792;2022-11-10T02:13:54;11.00;99.90
46482;DHT22;32193;51.446;6.792;2022-11-10T02:16:21;11.00;99.90
46482;DHT22;32193;51.446;6.792;2022-11-10T02:18:47;11.20;99.90
46482;DHT22;32193;51.446;6.792;2022-11-10T02:21:15;11.20;99.90
46482;DHT22;32193;51.446;6.792;2022-11-10T02:23:49;11.00;99.90
46482;DHT22;32193;51.446;6.792;2022-11-10T02:26:22;11.10;99.90
46482;DHT22;32193;51.446;6.792;2022-11-10T02:28:48;11.10;99.90
46482;DHT22;32193;51.446;6.792;2022-11-10T02:31:14;11.20;99.90
46482;DHT22;32193;51.446;6.792;2022-11-10T02:33:40;10.80;99.90
46482;DHT22;32193;51.446;6.792;2022-11-10T02:38:32;11.10;99.90
46482;DHT22;32193;51.446;6.792;2022-11-10T02:40:57;11.10;99.90
46482;DHT22;32193;51.446;6.792;2022-11-10T02:43:23;10.80;99.90
46482;DHT22;32193;51.446;6.792;2022-11-10T02:48:15;11.10;99.90
46482;DHT22;32193;51.446;6.792;2022-11-10T02:50:41;10.90;99.90
46482;DHT22;32193;51.446;6.792;2022-11-10T02:55:33;11.10;99.90
46482;DHT22;32193;51.446;6.792;2022-11-10T02:57:59;11.20;99.90
46482;DHT22;32193;51.446;6.792;2022-11-10T03:00:25;11.00;99.90
46482;DHT22;32193;51.446;6.792;2022-11-10T03:03:01;10.70;99.90
46482;DHT22;32193;51.446;6.792;2022-11-10T03:05:27;10.60;99.90
46482;DHT22;32193;51.446;6.792;2022-11-10T03:07:55;10.90;99.90
46482;DHT22;32193;51.446;6.792;2022-11-10T03:10:21;10.90;99.90
46482;DHT22;32193;51.446;6.792;2022-11-10T03:12:47;11.00;99.90
46482;DHT22;32193;51.446;6.792;2022-11-10T03:15:13;10.70;99.90
46482;DHT22;32193;51.446;6.792;2022-11-10T03:17:39;11.10;99.90
46482;DHT22;32193;51.446;6.792;2022-11-10T03:20:05;11.20;99.90
46482;DHT22;32193;51.446;6.792;2022-11-10T03:24:57;10.70;99.90
46482;DHT22;32193;51.446;6.792;2022-11-10T03:27:22;11.00;99.90
46482;DHT22;32193;51.446;6.792;2022-11-10T03:32:14;11.00;99.90
46482;DHT22;32193;51.446;6.792;2022-11-10T03:34:39;11.20;99.90
46482;DHT22;32193;51.446;6.792;2022-11-10T03:37:05;10.80;99.90
46482;DHT22;32193;51.446;6.792;2022-11-10T03:41:56;10.80;99.90
46482;DHT22;32193;51.446;6.792;2022-11-10T03:44:22;11.30;99.90
46482;DHT22;32193;51.446;6.792;2022-11-10T03:46:47;11.00;99.90
46482;DHT22;32193;51.446;6.792;2022-11-10T03:49:13;10.90;99.90
46482;DHT22;32193;51.446;6.792;2022-11-10T03:54:05;10.90;99.90
46482;DHT22;32193;51.446;6.792;2022-11-10T03:58:56;10.90;99.90
46482;DHT22;32193;51.446;6.792;2022-11-10T04:01:22;10.90;99.90
46482;DHT22;32193;51.446;6.792;2022-11-10T04:06:14;11.00;99.90
46482;DHT22;32193;51.446;6.792;2022-11-10T04:08:58;10.70;99.90
46482;DHT22;32193;51.446;6.792;2022-11-10T04:11:24;11.60;99.90
46482;DHT22;32193;51.446;6.792;2022-11-10T04:14:09;11.00;99.90
46482;DHT22;32193;51.446;6.792;2022-11-10T04:16:53;10.50;99.90
46482;DHT22;32193;51.446;6.792;2022-11-10T04:19:19;10.60;99.90
46482;DHT22;32193;51.446;6.792;2022-11-10T04:21:45;10.80;99.90
46482;DHT22;32193;51.446;6.792;2022-11-10T04:26:37;11.20;99.90
46482;DHT22;32193;51.446;6.792;2022-11-10T04:29:07;10.60;99.90
46482;DHT22;32193;51.446;6.792;2022-11-10T04:31:35;10.40;99.90
46482;DHT22;32193;51.446;6.792;2022-11-10T04:34:08;10.70;99.90
46482;DHT22;32193;51.446;6.792;2022-11-10T04:36:35;11.00;99.90
46482;DHT22;32193;51.446;6.792;2022-11-10T04:43:54;10.50;99.90
46482;DHT22;32193;51.446;6.792;2022-11-10T04:48:49;10.20;99.90
46482;DHT22;32193;51.446;6.792;2022-11-10T04:51:16;10.90;99.90
46482;DHT22;32193;51.446;6.792;2022-11-10T04:56:16;10.60;99.90
46482;DHT22;32193;51.446;6.792;2022-11-10T04:58:43;11.00;99.90
46482;DHT22;32193;51.446;6.792;2022-11-10T05:01:14;10.80;99.90
46482;DHT22;32193;51.446;6.792;2022-11-10T05:03:41;10.60;99.90
46482;DHT22;32193;51.446;6.792;2022-11-10T05:06:07;10.70;99.90
46482;DHT22;32193;51.446;6.792;2022-11-10T05:08:33;10.10;99.90
46482;DHT22;32193;51.446;6.792;2022-11-10T05:10:58;10.70;99.90
46482;DHT22;32193;51.446;6.792;2022-11-10T05:13:24;10.90;99.90
46482;DHT22;32193;51.446;6.792;2022-11-10T05:15:50;10.50;99.90
46482;DHT22;32193;51.446;6.792;2022-11-10T05:23:08;11.10;99.90
46482;DHT22;32193;51.446;6.792;2022-11-10T05:25:52;10.80;99.90
46482;DHT22;32193;51.446;6.792;2022-11-10T05:28:18;11.40;99.90
46482;DHT22;32193;51.446;6.792;2022-11-10T05:30:44;10.90;99.90
46482;DHT22;32193;51.446;6.792;2022-11-10T05:33:10;11.10;99.90
46482;DHT22;32193;51.446;6.792;2022-11-10T05:35:36;11.30;99.90
46482;DHT22;32193;51.446;6.792;2022-11-10T05:40:28;11.20;99.90
46482;DHT22;32193;51.446;6.792;2022-11-10T05:42:54;10.60;99.90
46482;DHT22;32193;51.446;6.792;2022-11-10T05:45:21;10.50;99.90
46482;DHT22;32193;51.446;6.792;2022-11-10T05:47:47;10.90;99.90
46482;DHT22;32193;51.446;6.792;2022-11-10T05:50:14;10.90;99.90
46482;DHT22;32193;51.446;6.792;2022-11-10T05:52:48;10.90;99.90
46482;DHT22;32193;51.446;6.792;2022-11-10T05:55:15;10.70;99.90
46482;DHT22;32193;51.446;6.792;2022-11-10T05:57:42;10.30;99.90
46482;DHT22;32193;51.446;6.792;2022-11-10T06:00:09;10.60;99.90
46482;DHT22;32193;51.446;6.792;2022-11-10T06:07:26;10.50;99.90
46482;DHT22;32193;51.446;6.792;2022-11-10T06:09:52;10.70;99.90
46482;DHT22;32193;51.446;6.792;2022-11-10T06:12:17;10.60;99.90
46482;DHT22;32193;51.446;6.792;2022-11-10T06:17:09;10.90;99.90
46482;DHT22;32193;51.446;6.792;2022-11-10T06:19:35;11.10;99.90
46482;DHT22;32193;51.446;6.792;2022-11-10T06:22:00;10.90;99.90
46482;DHT22;32193;51.446;6.792;2022-11-10T06:24:26;10.50;99.90
46482;DHT22;32193;51.446;6.792;2022-11-10T06:26:51;10.90;99.90
46482;DHT22;32193;51.446;6.792;2022-11-10T06:34:09;10.70;99.90
46482;DHT22;32193;51.446;6.792;2022-11-10T06:36:34;11.40;99.90
46482;DHT22;32193;51.446;6.792;2022-11-10T06:43:52;10.50;99.90
46482;DHT22;32193;51.446;6.792;2022-11-10T07:08:13;11.00;99.90
46482;DHT22;32193;51.446;6.792;2022-11-10T07:10:41;11.20;99.90
46482;DHT22;32193;51.446;6.792;2022-11-10T07:17:59;11.00;99.90
46482;DHT22;32193;51.446;6.792;2022-11-10T07:23:04;11.00;99.90
46482;DHT22;32193;51.446;6.792;2022-11-10T07:25:31;11.30;99.90
46482;DHT22;32193;51.446;6.792;2022-11-10T07:27:59;11.20;99.90
46482;DHT22;32193;51.446;6.792;2022-11-10T07:30:25;11.90;99.90
46482;DHT22;32193;51.446;6.792;2022-11-10T07:32:59;11.70;99.90
46482;DHT22;32193;51.446;6.792;2022-11-10T07:35:24;11.00;99.90
46482;DHT22;32193;51.446;6.792;2022-11-10T07:42:44;11.20;99.90
46482;DHT22;32193;51.446;6.792;2022-11-10T07:45:10;11.00;99.90
46482;DHT22;32193;51.446;6.792;2022-11-10T07:50:01;11.60;99.90
46482;DHT22;32193;51.446;6.792;2022-11-10T07:59:45;11.30;99.90
46482;DHT22;32193;51.446;6.792;2022-11-10T08:02:11;11.60;99.90
46482;DHT22;32193;51.446;6.792;2022-11-10T08:07:02;11.50;99.90
46482;DHT22;32193;51.446;6.792;2022-11-10T08:11:54;11.70;99.90
46482;DHT22;32193;51.446;6.792;2022-11-10T08:14:20;11.30;99.90
46482;DHT22;32193;51.446;6.792;2022-11-10T08:19:12;11.20;99.90
46482;DHT22;32193;51.446;6.792;2022-11-10T08:21:37;11.50;99.90
46482;DHT22;32193;51.446;6.792;2022-11-10T08:24:03;11.90;99.90
46482;DHT22;32193;51.446;6.792;2022-11-10T08:28:54;12.10;99.90
46482;DHT22;32193;51.446;6.792;2022-11-10T08:33:46;12.30;99.90
46482;DHT22;32193;51.446;6.792;2022-11-10T08:41:04;11.70;99.90
46482;DHT22;32193;51.446;6.792;2022-11-10T08:43:30;12.50;99.90
46482;DHT22;32193;51.446;6.792;2022-11-10T08:48:22;12.10;99.90
46482;DHT22;32193;51.446;6.792;2022-11-10T08:50:48;11.90;99.90
46482;DHT22;32193;51.446;6.792;2022-11-10T08:53:16;12.60;99.90
46482;DHT22;32193;51.446;6.792;2022-11-10T08:55:43;12.70;99.90
46482;DHT22;32193;51.446;6.792;2022-11-10T08:58:13;12.60;99.90
46482;DHT22;32193;51.446;6.792;2022-11-10T09:00:39;12.80;99.90
46482;DHT22;32193;51.446;6.792;2022-11-10T09:03:12;12.90;99.90
46482;DHT22;32193;51.446;6.792;2022-11-10T09:05:38;12.90;99.90
46482;DHT22;32193;51.446;6.792;2022-11-10T09:08:04;12.40;99.90
46482;DHT22;32193;51.446;6.792;2022-11-10T09:10:31;13.20;99.90
46482;DHT22;32193;51.446;6.792;2022-11-10T09:12:59;13.10;99.90
46482;DHT22;32193;51.446;6.792;2022-11-10T09:17:51;13.20;99.90
46482;DHT22;32193;51.446;6.792;2022-11-10T09:25:09;13.60;99.90
46482;DHT22;32193;51.446;6.792;2022-11-10T09:27:37;13.80;99.90
46482;DHT22;32193;51.446;6.792;2022-11-10T09:30:04;13.20;99.90
46482;DHT22;32193;51.446;6.792;2022-11-10T09:32:30;13.50;99.90
46482;DHT22;32193;51.446;6.792;2022-11-10T09:34:56;13.50;99.90
46482;DHT22;32193;51.446;6.792;2022-11-10T09:37:22;13.40;99.90
46482;DHT22;32193;51.446;6.792;2022-11-10T09:39:48;13.20;99.90
46482;DHT22;32193;51.446;6.792;2022-11-10T09:42:33;14.10;99.90
46482;DHT22;32193;51.446;6.792;2022-11-10T09:45:22;13.70;99.90
46482;DHT22;32193;51.446;6.792;2022-11-10T09:47:57;13.40;99.90
46482;DHT22;32193;51.446;6.792;2022-11-10T09:55:58;14.10;99.90
46482;DHT22;32193;51.446;6.792;2022-11-10T09:58:42;14.10;99.90
46482;DHT22;32193;51.446;6.792;2022-11-10T10:01:14;14.40;99.90
46482;DHT22;32193;51.446;6.792;2022-11-10T10:03:47;14.30;99.90
46482;DHT22;32193;51.446;6.792;2022-11-10T10:14:31;14.00;99.90
46482;DHT22;32193;51.446;6.792;2022-11-10T10:24:44;14.10;99.90
46482;DHT22;32193;51.446;6.792;2022-11-10T10:27:20;14.50;99.90
46482;DHT22;32193;51.446;6.792;2022-11-10T10:29:47;14.60;99.90
46482;DHT22;32193;51.446;6.792;2022-11-10T10:32:16;14.60;99.90
46482;DHT22;32193;51.446;6.792;2022-11-10T10:34:44;14.70;99.90
46482;DHT22;32193;51.446;6.792;2022-11-10T10:39:49;15.00;99.90
46482;DHT22;32193;51.446;6.792;2022-11-10T10:42:31;14.80;99.90
46482;DHT22;32193;51.446;6.792;2022-11-10T10:47:41;14.50;99.90
46482;DHT22;32193;51.446;6.792;2022-11-10T10:50:32;14.40;99.90
46482;DHT22;32193;51.446;6.792;2022-11-10T10:55:35;14.90;99.90
46482;DHT22;32193;51.446;6.792;2022-11-10T10:58:03;16.60;99.90
46482;DHT22;32193;51.446;6.792;2022-11-10T11:00:29;14.90;99.90
46482;DHT22;32193;51.446;6.792;2022-11-10T11:03:09;14.90;99.90
46482;DHT22;32193;51.446;6.792;2022-11-10T11:10:33;15.30;99.90
46482;DHT22;32193;51.446;6.792;2022-11-10T11:13:25;15.30;99.90
46482;DHT22;32193;51.446;6.792;2022-11-10T11:15:59;15.20;99.90
46482;DHT22;32193;51.446;6.792;2022-11-10T11:18:27;15.20;99.90
46482;DHT22;32193;51.446;6.792;2022-11-10T11:55:23;15.80;99.90
46482;DHT22;32193;51.446;6.792;2022-11-10T12:20:05;15.80;99.90
46482;DHT22;32193;51.446;6.792;2022-11-10T12:25:40;15.80;99.90
46482;DHT22;32193;51.446;6.792;2022-11-10T12:28:23;15.90;99.90
46482;DHT22;32193;51.446;6.792;2022-11-10T12:30:52;16.30;99.90
46482;DHT22;32193;51.446;6.792;2022-11-10T12:35:57;15.90;99.90
46482;DHT22;32193;51.446;6.792;2022-11-10T12:41:18;16.00;99.90
46482;DHT22;32193;51.446;6.792;2022-11-10T12:46:29;16.10;99.90
46482;DHT22;32193;51.446;6.792;2022-11-10T12:49:17;15.90;99.90
46482;DHT22;32193;51.446;6.792;2022-11-10T12:54:24;16.40;99.90
46482;DHT22;32193;51.446;6.792;2022-11-10T12:56:57;15.60;99.90
46482;DHT22;32193;51.446;6.792;2022-11-10T12:59:29;16.10;99.90
46482;DHT22;32193;51.446;6.792;2022-11-10T13:02:05;16.00;99.90
46482;DHT22;32193;51.446;6.792;2022-11-10T13:07:04;16.50;99.90
46482;DHT22;32193;51.446;6.792;2022-11-10T13:09:32;15.90;99.90
46482;DHT22;32193;51.446;6.792;2022-11-10T13:12:18;16.20;99.90
46482;DHT22;32193;51.446;6.792;2022-11-10T13:14:45;16.10;99.90
46482;DHT22;32193;51.446;6.792;2022-11-10T13:19:53;15.90;99.90
46482;DHT22;32193;51.446;6.792;2022-11-10T13:27:58;16.30;99.90
46482;DHT22;32193;51.446;6.792;2022-11-10T13:30:43;16.40;99.90
46482;DHT22;32193;51.446;6.792;2022-11-10T13:35:52;16.10;99.90
46482;DHT22;32193;51.446;6.792;2022-11-10T13:43:53;16.30;99.90
46482;DHT22;32193;51.446;6.792;2022-11-10T13:46:30;15.50;99.90
46482;DHT22;32193;51.446;6.792;2022-11-10T13:49:18;15.90;99.90
46482;DHT22;32193;51.446;6.792;2022-11-10T13:52:06;15.90;99.90
46482;DHT22;32193;51.446;6.792;2022-11-10T13:55:01;15.80;99.90
46482;DHT22;32193;51.446;6.792;2022-11-10T13:57:37;15.70;99.90
46482;DHT22;32193;51.446;6.792;2022-11-10T14:02:45;15.90;99.90
46482;DHT22;32193;51.446;6.792;2022-11-10T14:08:13;15.80;99.90
46482;DHT22;32193;51.446;6.792;2022-11-10T14:10:58;16.20;99.90
46482;DHT22;32193;51.446;6.792;2022-11-10T14:13:48;16.10;99.90
46482;DHT22;32193;51.446;6.792;2022-11-10T14:16:20;15.60;99.90
46482;DHT22;32193;51.446;6.792;2022-11-10T14:19:04;15.80;99.90
46482;DHT22;32193;51.446;6.792;2022-11-10T14:22:39;15.80;99.90
46482;DHT22;32193;51.446;6.792;2022-11-10T14:24:57;15.20;99.90
46482;DHT22;32193;51.446;6.792;2022-11-10T14:27:29;15.80;99.90
46482;DHT22;32193;51.446;6.792;2022-11-10T14:30:31;15.30;99.90
46482;DHT22;32193;51.446;6.792;2022-11-10T14:33:07;15.70;99.90
46482;DHT22;32193;51.446;6.792;2022-11-10T14:38:27;15.70;99.90
46482;DHT22;32193;51.446;6.792;2022-11-10T14:40:55;15.60;99.90
46482;DHT22;32193;51.446;6.792;2022-11-10T14:48:25;15.80;99.90
46482;DHT22;32193;51.446;6.792;2022-11-10T14:50:52;15.20;99.90
46482;DHT22;32193;51.446;6.792;2022-11-10T14:53:19;15.50;99.90
46482;DHT22;32193;51.446;6.792;2022-11-10T14:55:46;15.10;99.90
46482;DHT22;32193;51.446;6.792;2022-11-10T14:58:12;15.20;99.90
46482;DHT22;32193;51.446;6.792;2022-11-10T15:00:41;15.00;99.90
46482;DHT22;32193;51.446;6.792;2022-11-10T15:03:16;14.90;99.90
46482;DHT22;32193;51.446;6.792;2022-11-10T15:05:43;15.00;99.90
46482;DHT22;32193;51.446;6.792;2022-11-10T15:08:09;14.80;99.90
46482;DHT22;32193;51.446;6.792;2022-11-10T15:15:36;14.90;99.90
46482;DHT22;32193;51.446;6.792;2022-11-10T15:20:33;15.30;99.90
46482;DHT22;32193;51.446;6.792;2022-11-10T15:23:01;15.10;99.90
46482;DHT22;32193;51.446;6.792;2022-11-10T15:25:46;14.80;99.90
46482;DHT22;32193;51.446;6.792;2022-11-10T15:33:10;15.00;99.90
46482;DHT22;32193;51.446;6.792;2022-11-10T15:35:36;15.30;99.90
46482;DHT22;32193;51.446;6.792;2022-11-10T15:40:47;15.00;99.90
46482;DHT22;32193;51.446;6.792;2022-11-10T15:45:54;14.70;99.90
46482;DHT22;32193;51.446;6.792;2022-11-10T15:50:49;14.60;99.90
46482;DHT22;32193;51.446;6.792;2022-11-10T15:53:26;14.60;99.90
46482;DHT22;32193;51.446;6.792;2022-11-10T15:55:54;14.70;99.90
46482;DHT22;32193;51.446;6.792;2022-11-10T15:58:21;14.50;99.90
46482;DHT22;32193;51.446;6.792;2022-11-10T16:03:17;14.70;99.90
46482;DHT22;32193;51.446;6.792;2022-11-10T16:05:43;14.50;99.90
46482;DHT22;32193;51.446;6.792;2022-11-10T16:08:15;14.40;99.90
46482;DHT22;32193;51.446;6.792;2022-11-10T16:10:43;14.40;99.90
46482;DHT22;32193;51.446;6.792;2022-11-10T16:13:10;14.70;99.90
46482;DHT22;32193;51.446;6.792;2022-11-10T16:15:38;14.70;99.90
46482;DHT22;32193;51.446;6.792;2022-11-10T16:18:11;14.00;99.90
46482;DHT22;32193;51.446;6.792;2022-11-10T16:25:30;14.20;99.90
46482;DHT22;32193;51.446;6.792;2022-11-10T16:27:55;14.20;99.90
46482;DHT22;32193;51.446;6.792;2022-11-10T16:32:47;14.50;99.90
46482;DHT22;32193;51.446;6.792;2022-11-10T16:35:13;14.10;99.90
46482;DHT22;32193;51.446;6.792;2022-11-10T16:37:41;14.50;99.90
46482;DHT22;32193;51.446;6.792;2022-11-10T16:40:21;14.00;99.90
46482;DHT22;32193;51.446;6.792;2022-11-10T16:42:48;13.90;99.90
46482;DHT22;32193;51.446;6.792;2022-11-10T16:45:19;14.20;99.90
46482;DHT22;32193;51.446;6.792;2022-11-10T16:47:47;14.60;99.90
46482;DHT22;32193;51.446;6.792;2022-11-10T16:50:33;13.80;99.90
46482;DHT22;32193;51.446;6.792;2022-11-10T16:53:04;13.90;99.90
46482;DHT22;32193;51.446;6.792;2022-11-10T16:57:57;13.80;99.90
46482;DHT22;32193;51.446;6.792;2022-11-10T17:00:23;13.60;99.90
46482;DHT22;32193;51.446;6.792;2022-11-10T17:03:01;13.80;99.90
46482;DHT22;32193;51.446;6.792;2022-11-10T17:07:57;13.70;99.90
46482;DHT22;32193;51.446;6.792;2022-11-10T17:10:23;14.10;99.90
46482;DHT22;32193;51.446;6.792;2022-11-10T17:12:49;13.70;99.90
46482;DHT22;32193;51.446;6.792;2022-11-10T17:15:15;13.80;99.90
46482;DHT22;32193;51.446;6.792;2022-11-10T17:17:43;13.30;99.90
46482;DHT22;32193;51.446;6.792;2022-11-10T17:20:21;13.60;99.90
46482;DHT22;32193;51.446;6.792;2022-11-10T17:22:50;13.90;99.90
46482;DHT22;32193;51.446;6.792;2022-11-10T17:25:25;13.10;99.90
46482;DHT22;32193;51.446;6.792;2022-11-10T17:27:52;13.60;99.90
46482;DHT22;32193;51.446;6.792;2022-11-10T17:30:18;13.30;99.90
46482;DHT22;32193;51.446;6.792;2022-11-10T17:35:10;13.40;99.90
46482;DHT22;32193;51.446;6.792;2022-11-10T17:40:27;13.30;99.90
46482;DHT22;32193;51.446;6.792;2022-11-10T17:42:52;13.40;99.90
46482;DHT22;32193;51.446;6.792;2022-11-10T17:47:45;14.00;99.90
46482;DHT22;32193;51.446;6.792;2022-11-10T17:50:11;13.70;99.90
46482;DHT22;32193;51.446;6.792;2022-11-10T17:55:03;13.40;99.90
46482;DHT22;32193;51.446;6.792;2022-11-10T17:59:54;13.20;99.90
46482;DHT22;32193;51.446;6.792;2022-11-10T18:04:46;13.30;99.90
46482;DHT22;32193;51.446;6.792;2022-11-10T18:07:11;13.10;99.90
46482;DHT22;32193;51.446;6.792;2022-11-10T18:09:37;13.50;99.90
46482;DHT22;32193;51.446;6.792;2022-11-10T18:12:03;13.30;99.90
46482;DHT22;32193;51.446;6.792;2022-11-10T18:14:28;13.20;99.90
46482;DHT22;32193;51.446;6.792;2022-11-10T18:16:54;13.50;99.90
46482;DHT22;32193;51.446;6.792;2022-11-10T18:19:20;13.60;99.90
46482;DHT22;32193;51.446;6.792;2022-11-10T18:24:11;13.20;99.90
46482;DHT22;32193;51.446;6.792;2022-11-10T18:29:03;12.70;99.90
46482;DHT22;32193;51.446;6.792;2022-11-10T18:31:28;12.70;99.90
46482;DHT22;32193;51.446;6.792;2022-11-10T18:33:54;12.80;99.90
46482;DHT22;32193;51.446;6.792;2022-11-10T18:41:12;12.90;99.90
46482;DHT22;32193;51.446;6.792;2022-11-10T18:43:56;12.90;99.90
46482;DHT22;32193;51.446;6.792;2022-11-10T18:46:21;12.40;99.90
46482;DHT22;32193;51.446;6.792;2022-11-10T18:51:14;12.50;99.90
46482;DHT22;32193;51.446;6.792;2022-11-10T18:58:31;12.60;99.90
46482;DHT22;32193;51.446;6.792;2022-11-10T19:01:02;12.20;99.90
46482;DHT22;32193;51.446;6.792;2022-11-10T19:03:28;12.60;99.90
46482;DHT22;32193;51.446;6.792;2022-11-10T19:05:56;12.60;99.90
46482;DHT22;32193;51.446;6.792;2022-11-10T19:08:23;12.70;99.90
46482;DHT22;32193;51.446;6.792;2022-11-10T19:10:48;12.20;99.90
46482;DHT22;32193;51.446;6.792;2022-11-10T19:13:14;12.70;99.90
46482;DHT22;32193;51.446;6.792;2022-11-10T19:15:42;13.30;99.90
46482;DHT22;32193;51.446;6.792;2022-11-10T19:18:08;12.00;99.90
46482;DHT22;32193;51.446;6.792;2022-11-10T19:20:35;12.60;99.90
46482;DHT22;32193;51.446;6.792;2022-11-10T19:27:52;12.60;99.90
46482;DHT22;32193;51.446;6.792;2022-11-10T19:30:18;12.40;99.90
46482;DHT22;32193;51.446;6.792;2022-11-10T19:32:43;12.80;99.90
46482;DHT22;32193;51.446;6.792;2022-11-10T19:37:37;12.50;99.90
46482;DHT22;32193;51.446;6.792;2022-11-10T19:40:03;12.30;99.90
46482;DHT22;32193;51.446;6.792;2022-11-10T19:44:56;12.20;99.90
46482;DHT22;32193;51.446;6.792;2022-11-10T19:47:22;12.00;99.90
46482;DHT22;32193;51.446;6.792;2022-11-10T19:52:14;11.80;99.90
46482;DHT22;32193;51.446;6.792;2022-11-10T19:54:39;12.10;99.90
46482;DHT22;32193;51.446;6.792;2022-11-10T19:57:05;12.20;99.90
46482;DHT22;32193;51.446;6.792;2022-11-10T19:59:31;12.00;99.90
46482;DHT22;32193;51.446;6.792;2022-11-10T20:01:57;11.80;99.90
46482;DHT22;32193;51.446;6.792;2022-11-10T20:04:26;11.90;99.90
46482;DHT22;32193;51.446;6.792;2022-11-10T20:06:52;11.90;99.90
46482;DHT22;32193;51.446;6.792;2022-11-10T20:09:38;12.40;99.90
46482;DHT22;32193;51.446;6.792;2022-11-10T20:12:06;11.60;99.90
46482;DHT22;32193;51.446;6.792;2022-11-10T20:14:32;12.20;99.90
46482;DHT22;32193;51.446;6.792;2022-11-10T20:16:58;11.90;99.90
46482;DHT22;32193;51.446;6.792;2022-11-10T20:21:50;12.10;99.90
46482;DHT22;32193;51.446;6.792;2022-11-10T20:24:15;11.50;99.90
46482;DHT22;32193;51.446;6.792;2022-11-10T20:29:07;11.70;99.90
46482;DHT22;32193;51.446;6.792;2022-11-10T20:36:29;11.60;99.90
46482;DHT22;32193;51.446;6.792;2022-11-10T20:38:57;11.70;99.90
46482;DHT22;32193;51.446;6.792;2022-11-10T20:41:25;11.70;99.90
46482;DHT22;32193;51.446;6.792;2022-11-10T20:46:19;11.60;99.90
46482;DHT22;32193;51.446;6.792;2022-11-10T20:48:46;11.60;99.90
46482;DHT22;32193;51.446;6.792;2022-11-10T20:51:14;11.50;99.90
46482;DHT22;32193;51.446;6.792;2022-11-10T20:53:40;11.80;99.90
46482;DHT22;32193;51.446;6.792;2022-11-10T20:56:07;11.60;99.90
46482;DHT22;32193;51.446;6.792;2022-11-10T20:58:33;10.90;99.90
46482;DHT22;32193;51.446;6.792;2022-11-10T21:01:07;11.50;99.90
46482;DHT22;32193;51.446;6.792;2022-11-10T21:03:33;11.40;99.90
46482;DHT22;32193;51.446;6.792;2022-11-10T21:06:00;11.60;99.90
46482;DHT22;32193;51.446;6.792;2022-11-10T21:08:26;11.50;99.90
46482;DHT22;32193;51.446;6.792;2022-11-10T21:10:57;11.70;99.90
46482;DHT22;32193;51.446;6.792;2022-11-10T21:13:24;11.50;99.90
46482;DHT22;32193;51.446;6.792;2022-11-10T21:15:52;11.30;99.90
46482;DHT22;32193;51.446;6.792;2022-11-10T21:18:18;10.80;99.90
46482;DHT22;32193;51.446;6.792;2022-11-10T21:23:10;11.70;99.90
46482;DHT22;32193;51.446;6.792;2022-11-10T21:28:02;11.00;99.90
46482;DHT22;32193;51.446;6.792;2022-11-10T21:30:28;11.10;99.90
46482;DHT22;32193;51.446;6.792;2022-11-10T21:32:53;10.80;99.90
46482;DHT22;32193;51.446;6.792;2022-11-10T21:35:19;11.70;99.90
46482;DHT22;32193;51.446;6.792;2022-11-10T21:37:45;11.60;99.90
46482;DHT22;32193;51.446;6.792;2022-11-10T21:40:11;11.10;99.90
46482;DHT22;32193;51.446;6.792;2022-11-10T21:42:37;11.60;99.90
46482;DHT22;32193;51.446;6.792;2022-11-10T21:47:29;11.10;99.90
46482;DHT22;32193;51.446;6.792;2022-11-10T21:49:54;11.10;99.90
46482;DHT22;32193;51.446;6.792;2022-11-10T21:52:20;10.80;99.90
46482;DHT22;32193;51.446;6.792;2022-11-10T21:57:11;11.20;99.90
46482;DHT22;32193;51.446;6.792;2022-11-10T21:59:37;11.40;99.90
46482;DHT22;32193;51.446;6.792;2022-11-10T22:02:02;11.30;99.90